Aviation Digital Data Service (ADDS)

Output produced by METARs form (1723 UTC 03 June 2020)
found at http://www.aviationweather.gov/metar/data/
 
METAR text: ZGHA 031700Z 17002MPS 130V220 6000 NSC 24/24 Q1005 NOSIG
Conditions at: ZGHA (HUANGHUA/CHANGSH, CN) observed 1700 UTC 03 June 2020
Temperature: 24.0°C (75°F)
Dewpoint: 24.0°C (75°F) [RH = 100%]
Pressure (altimeter): 29.68 inches Hg (1005.0 mb)
Winds: from the S (170 degrees) at 5 MPH (4 knots; 2.1 m/s)
Visibility: 4 miles ( 6 km)
Ceiling: at least 12,000 feet AGL
Clouds: sky clear below 12,000 feet AGL
Weather: no significant weather observed at this time

METAR text: ZGHA 031600Z 19002MPS 160V240 6000 NSC 24/24 Q1005 NOSIG
Conditions at: ZGHA (HUANGHUA/CHANGSH, CN) observed 1600 UTC 03 June 2020
Temperature: 24.0°C (75°F)
Dewpoint: 24.0°C (75°F) [RH = 100%]
Pressure (altimeter): 29.68 inches Hg (1005.0 mb)
Winds: from the S (190 degrees) at 5 MPH (4 knots; 2.1 m/s)
Visibility: 4 miles ( 6 km)
Ceiling: at least 12,000 feet AGL
Clouds: sky clear below 12,000 feet AGL
Weather: no significant weather observed at this time

METAR text: ZGHA 031500Z VRB01MPS 8000 NSC 24/24 Q1006 NOSIG
Conditions at: ZGHA (HUANGHUA/CHANGSH, CN) observed 1500 UTC 03 June 2020
Temperature: 24.0°C (75°F)
Dewpoint: 24.0°C (75°F) [RH = 100%]
Pressure (altimeter): 29.70 inches Hg (1006.0 mb)
Winds: variable direction winds at 2 MPH (2 knots; 1.0 m/s)
Visibility: 5 miles ( 8 km)
Ceiling: at least 12,000 feet AGL
Clouds: sky clear below 12,000 feet AGL
Weather: no significant weather observed at this time

METAR text: ZGHA 031400Z 19002MPS 150V230 9000 NSC 25/24 Q1006 NOSIG
Conditions at: ZGHA (HUANGHUA/CHANGSH, CN) observed 1400 UTC 03 June 2020
Temperature: 25.0°C (77°F)
Dewpoint: 24.0°C (75°F) [RH = 94%]
Pressure (altimeter): 29.70 inches Hg (1006.0 mb)
Winds: from the S (190 degrees) at 5 MPH (4 knots; 2.1 m/s)
Visibility: 6 miles ( 9 km)
Ceiling: at least 12,000 feet AGL
Clouds: sky clear below 12,000 feet AGL
Weather: no significant weather observed at this time

METAR text: ZGHA 031300Z 18002MPS 9000 NSC 25/23 Q1005 NOSIG
Conditions at: ZGHA (HUANGHUA/CHANGSH, CN) observed 1300 UTC 03 June 2020
Temperature: 25.0°C (77°F)
Dewpoint: 23.0°C (73°F) [RH = 89%]
Pressure (altimeter): 29.68 inches Hg (1005.0 mb)
Winds: from the S (180 degrees) at 5 MPH (4 knots; 2.1 m/s)
Visibility: 6 miles ( 9 km)
Ceiling: at least 12,000 feet AGL
Clouds: sky clear below 12,000 feet AGL
Weather: no significant weather observed at this time

METAR text: ZGHA 031200Z 18002MPS CAVOK 25/23 Q1004 NOSIG
Conditions at: ZGHA (HUANGHUA/CHANGSH, CN) observed 1200 UTC 03 June 2020
Temperature: 25.0°C (77°F)
Dewpoint: 23.0°C (73°F) [RH = 89%]
Pressure (altimeter): 29.65 inches Hg (1004.0 mb)
Winds: from the S (180 degrees) at 5 MPH (4 knots; 2.1 m/s)
Visibility: 6 or more miles (10+ km)
Ceiling: ceiling and visibility are OK
Clouds: unknown
Weather: no significant weather observed at this time

METAR text: ZGHA 031100Z 18003MPS CAVOK 26/23 Q1004 NOSIG
Conditions at: ZGHA (HUANGHUA/CHANGSH, CN) observed 1100 UTC 03 June 2020
Temperature: 26.0°C (79°F)
Dewpoint: 23.0°C (73°F) [RH = 84%]
Pressure (altimeter): 29.65 inches Hg (1004.0 mb)
Winds: from the S (180 degrees) at 7 MPH (6 knots; 3.1 m/s)
Visibility: 6 or more miles (10+ km)
Ceiling: ceiling and visibility are OK
Clouds: unknown
Weather: no significant weather observed at this time

METAR text: ZGHA 031000Z 16002MPS CAVOK 27/23 Q1004 NOSIG
Conditions at: ZGHA (HUANGHUA/CHANGSH, CN) observed 1000 UTC 03 June 2020
Temperature: 27.0°C (81°F)
Dewpoint: 23.0°C (73°F) [RH = 79%]
Pressure (altimeter): 29.65 inches Hg (1004.0 mb)
Winds: from the SSE (160 degrees) at 5 MPH (4 knots; 2.1 m/s)
Visibility: 6 or more miles (10+ km)
Ceiling: ceiling and visibility are OK
Clouds: unknown
Weather: no significant weather observed at this time

METAR text: ZGHA 030900Z 16002MPS 120V180 9999 SCT030 27/24 Q1004 NOSIG
Conditions at: ZGHA (HUANGHUA/CHANGSH, CN) observed 0900 UTC 03 June 2020
Temperature: 27.0°C (81°F)
Dewpoint: 24.0°C (75°F) [RH = 84%]
Pressure (altimeter): 29.65 inches Hg (1004.0 mb)
Winds: from the SSE (160 degrees) at 5 MPH (4 knots; 2.1 m/s)
Visibility: 6 or more miles (10+ km)
Ceiling: at least 12,000 feet AGL
Clouds: scattered clouds at 3000 feet AGL
Weather: no significant weather observed at this time

METAR text: ZGHA 030800Z 18002MPS 160V220 9999 BKN016 OVC050 26/24 Q1005 NOSIG
Conditions at: ZGHA (HUANGHUA/CHANGSH, CN) observed 0800 UTC 03 June 2020
Temperature: 26.0°C (79°F)
Dewpoint: 24.0°C (75°F) [RH = 89%]
Pressure (altimeter): 29.68 inches Hg (1005.0 mb)
Winds: from the S (180 degrees) at 5 MPH (4 knots; 2.1 m/s)
Visibility: 6 or more miles (10+ km)
Ceiling: 1600 feet AGL
Clouds: broken clouds at 1600 feet AGL
overcast cloud deck at 5000 feet AGL
Weather: no significant weather observed at this time

METAR text: ZGHA 030700Z VRB01MPS 8000 SCT016 OVC050 26/24 Q1005 NOSIG
Conditions at: ZGHA (HUANGHUA/CHANGSH, CN) observed 0700 UTC 03 June 2020
Temperature: 26.0°C (79°F)
Dewpoint: 24.0°C (75°F) [RH = 89%]
Pressure (altimeter): 29.68 inches Hg (1005.0 mb)
Winds: variable direction winds at 2 MPH (2 knots; 1.0 m/s)
Visibility: 5 miles ( 8 km)
Ceiling: 5000 feet AGL
Clouds: scattered clouds at 1600 feet AGL
overcast cloud deck at 5000 feet AGL
Weather: no significant weather observed at this time

METAR text: ZGHA 030600Z 21002MPS 170V250 6000 BKN010 OVC050 25/23 Q1006 NOSIG
Conditions at: ZGHA (HUANGHUA/CHANGSH, CN) observed 0600 UTC 03 June 2020
Temperature: 25.0°C (77°F)
Dewpoint: 23.0°C (73°F) [RH = 89%]
Pressure (altimeter): 29.70 inches Hg (1006.0 mb)
Winds: from the SSW (210 degrees) at 5 MPH (4 knots; 2.1 m/s)
Visibility: 4 miles ( 6 km)
Ceiling: 1000 feet AGL
Clouds: broken clouds at 1000 feet AGL
overcast cloud deck at 5000 feet AGL
Weather: no significant weather observed at this time

METAR text: ZGHA 030500Z 22002MPS 180V280 6000 -RA BKN008 OVC050 24/23 Q1006 BECMG TL0600 BKN011 OVC050
Conditions at: ZGHA (HUANGHUA/CHANGSH, CN) observed 0500 UTC 03 June 2020
Temperature: 24.0°C (75°F)
Dewpoint: 23.0°C (73°F) [RH = 94%]
Pressure (altimeter): 29.70 inches Hg (1006.0 mb)
Winds: from the SW (220 degrees) at 5 MPH (4 knots; 2.1 m/s)
Visibility: 4 miles ( 6 km)
Ceiling: 800 feet AGL
Clouds: broken clouds at 800 feet AGL
overcast cloud deck at 5000 feet AGL
Weather: -RA  (light rain)

METAR text: ZGHA 030400Z 27002MPS 220V310 7000 -RA BKN008 OVC050 24/23 Q1007 BECMG TL0550 BKN011 OVC050
Conditions at: ZGHA (HUANGHUA/CHANGSH, CN) observed 0400 UTC 03 June 2020
Temperature: 24.0°C (75°F)
Dewpoint: 23.0°C (73°F) [RH = 94%]
Pressure (altimeter): 29.73 inches Hg (1007.0 mb)
Winds: from the W (270 degrees) at 5 MPH (4 knots; 2.1 m/s)
Visibility: 4 miles ( 7 km)
Ceiling: 800 feet AGL
Clouds: broken clouds at 800 feet AGL
overcast cloud deck at 5000 feet AGL
Weather: -RA  (light rain)

METAR text: ZGHA 030300Z 25002MPS 220V310 7000 -RA SCT007 24/23 Q1007 NOSIG
Conditions at: ZGHA (HUANGHUA/CHANGSH, CN) observed 0300 UTC 03 June 2020
Temperature: 24.0°C (75°F)
Dewpoint: 23.0°C (73°F) [RH = 94%]
Pressure (altimeter): 29.73 inches Hg (1007.0 mb)
Winds: from the WSW (250 degrees) at 5 MPH (4 knots; 2.1 m/s)
Visibility: 4 miles ( 7 km)
Ceiling: at least 12,000 feet AGL
Clouds: scattered clouds at 700 feet AGL
Weather: -RA  (light rain)

METAR text: ZGHA 030200Z 29002MPS 3500 -RA BR SCT008 23/23 Q1007 NOSIG
Conditions at: ZGHA (HUANGHUA/CHANGSH, CN) observed 0200 UTC 03 June 2020
Temperature: 23.0°C (73°F)
Dewpoint: 23.0°C (73°F) [RH = 100%]
Pressure (altimeter): 29.73 inches Hg (1007.0 mb)
Winds: from the WNW (290 degrees) at 5 MPH (4 knots; 2.1 m/s)
Visibility: 2.17 miles (3.49 km)
Ceiling: at least 12,000 feet AGL
Clouds: scattered clouds at 800 feet AGL
Weather: -RA BR  (light rain, mist)

METAR text: ZGHA 030100Z 27002MPS 250V320 3200 -RA BR SCT007 OVC050 23/23 Q1006 NOSIG
Conditions at: ZGHA (HUANGHUA/CHANGSH, CN) observed 0100 UTC 03 June 2020
Temperature: 23.0°C (73°F)
Dewpoint: 23.0°C (73°F) [RH = 100%]
Pressure (altimeter): 29.70 inches Hg (1006.0 mb)
Winds: from the W (270 degrees) at 5 MPH (4 knots; 2.1 m/s)
Visibility: 1.99 miles (3.20 km)
Ceiling: 5000 feet AGL
Clouds: scattered clouds at 700 feet AGL
overcast cloud deck at 5000 feet AGL
Weather: -RA BR  (light rain, mist)

METAR text: ZGHA 030000Z 28002MPS 250V310 7000 SCT006 BKN020 OVC040 23/23 Q1006 NOSIG
Conditions at: ZGHA (HUANGHUA/CHANGSH, CN) observed 0000 UTC 03 June 2020
Temperature: 23.0°C (73°F)
Dewpoint: 23.0°C (73°F) [RH = 100%]
Pressure (altimeter): 29.70 inches Hg (1006.0 mb)
Winds: from the W (280 degrees) at 5 MPH (4 knots; 2.1 m/s)
Visibility: 4 miles ( 7 km)
Ceiling: 2000 feet AGL
Clouds: scattered clouds at 600 feet AGL
broken clouds at 2000 feet AGL
overcast cloud deck at 4000 feet AGL
Weather: no significant weather observed at this time

METAR text: ZGHA 022300Z VRB01MPS 9999 BKN007 OVC033 23/23 Q1005 BECMG TL0050 BKN011 OVC050
Conditions at: ZGHA (HUANGHUA/CHANGSH, CN) observed 2300 UTC 02 June 2020
Temperature: 23.0°C (73°F)
Dewpoint: 23.0°C (73°F) [RH = 100%]
Pressure (altimeter): 29.68 inches Hg (1005.0 mb)
Winds: variable direction winds at 2 MPH (2 knots; 1.0 m/s)
Visibility: 6 or more miles (10+ km)
Ceiling: 700 feet AGL
Clouds: broken clouds at 700 feet AGL
overcast cloud deck at 3300 feet AGL
Weather: no significant weather observed at this time

METAR text: ZGHA 022200Z 29002MPS 250V320 7000 -RA BKN006 OVC040 23/23 Q1005 NOSIG
Conditions at: ZGHA (HUANGHUA/CHANGSH, CN) observed 2200 UTC 02 June 2020
Temperature: 23.0°C (73°F)
Dewpoint: 23.0°C (73°F) [RH = 100%]
Pressure (altimeter): 29.68 inches Hg (1005.0 mb)
Winds: from the WNW (290 degrees) at 5 MPH (4 knots; 2.1 m/s)
Visibility: 4 miles ( 7 km)
Ceiling: 600 feet AGL
Clouds: broken clouds at 600 feet AGL
overcast cloud deck at 4000 feet AGL
Weather: -RA  (light rain)

METAR text: ZGHA 022100Z 28003MPS 240V300 6000 -RA BKN006 OVC040 23/23 Q1004 NOSIG
Conditions at: ZGHA (HUANGHUA/CHANGSH, CN) observed 2100 UTC 02 June 2020
Temperature: 23.0°C (73°F)
Dewpoint: 23.0°C (73°F) [RH = 100%]
Pressure (altimeter): 29.65 inches Hg (1004.0 mb)
Winds: from the W (280 degrees) at 7 MPH (6 knots; 3.1 m/s)
Visibility: 4 miles ( 6 km)
Ceiling: 600 feet AGL
Clouds: broken clouds at 600 feet AGL
overcast cloud deck at 4000 feet AGL
Weather: -RA  (light rain)

METAR text: ZGHA 022000Z 25002MPS 6000 -RA BKN005 OVC040 23/23 Q1004 NOSIG
Conditions at: ZGHA (HUANGHUA/CHANGSH, CN) observed 2000 UTC 02 June 2020
Temperature: 23.0°C (73°F)
Dewpoint: 23.0°C (73°F) [RH = 100%]
Pressure (altimeter): 29.65 inches Hg (1004.0 mb)
Winds: from the WSW (250 degrees) at 5 MPH (4 knots; 2.1 m/s)
Visibility: 4 miles ( 6 km)
Ceiling: 500 feet AGL
Clouds: broken clouds at 500 feet AGL
overcast cloud deck at 4000 feet AGL
Weather: -RA  (light rain)

METAR text: ZGHA 021900Z VRB01MPS 6000 -RA BKN004 BKN020 OVC050 23/23 Q1004 RERA NOSIG
Conditions at: ZGHA (HUANGHUA/CHANGSH, CN) observed 1900 UTC 02 June 2020
Temperature: 23.0°C (73°F)
Dewpoint: 23.0°C (73°F) [RH = 100%]
Pressure (altimeter): 29.65 inches Hg (1004.0 mb)
Winds: variable direction winds at 2 MPH (2 knots; 1.0 m/s)
Visibility: 4 miles ( 6 km)
Ceiling: 400 feet AGL
Clouds: broken clouds at 400 feet AGL
broken clouds at 2000 feet AGL
overcast cloud deck at 5000 feet AGL
Weather: -RA  (light rain)

METAR text: ZGHA 021800Z VRB01MPS 5000 +RA BR SCT006 BKN023 OVC050 23/23 Q1004 BECMG TL1900 -RA
Conditions at: ZGHA (HUANGHUA/CHANGSH, CN) observed 1800 UTC 02 June 2020
Temperature: 23.0°C (73°F)
Dewpoint: 23.0°C (73°F) [RH = 100%]
Pressure (altimeter): 29.65 inches Hg (1004.0 mb)
Winds: variable direction winds at 2 MPH (2 knots; 1.0 m/s)
Visibility: 3 miles ( 5 km)
Ceiling: 2300 feet AGL
Clouds: scattered clouds at 600 feet AGL
broken clouds at 2300 feet AGL
overcast cloud deck at 5000 feet AGL
Weather: +RA BR  (heavy rain, mist)

METAR text: ZGHA 021700Z 30002MPS 6000 -RA SCT005 BKN010 OVC043 23/23 Q1005 RESHRA NOSIG
Conditions at: ZGHA (HUANGHUA/CHANGSH, CN) observed 1700 UTC 02 June 2020
Temperature: 23.0°C (73°F)
Dewpoint: 23.0°C (73°F) [RH = 100%]
Pressure (altimeter): 29.68 inches Hg (1005.0 mb)
Winds: from the WNW (300 degrees) at 5 MPH (4 knots; 2.1 m/s)
Visibility: 4 miles ( 6 km)
Ceiling: 1000 feet AGL
Clouds: scattered clouds at 500 feet AGL
broken clouds at 1000 feet AGL
overcast cloud deck at 4300 feet AGL
Weather: -RA  (light rain)

METAR text: ZGHA 021600Z VRB01MPS 5000 SHRA BR SCT004 BKN011 OVC043 23/23 Q1006 RETS BECMG TL1700 -RA
Conditions at: ZGHA (HUANGHUA/CHANGSH, CN) observed 1600 UTC 02 June 2020
Temperature: 23.0°C (73°F)
Dewpoint: 23.0°C (73°F) [RH = 100%]
Pressure (altimeter): 29.70 inches Hg (1006.0 mb)
Winds: variable direction winds at 2 MPH (2 knots; 1.0 m/s)
Visibility: 3 miles ( 5 km)
Ceiling: 1100 feet AGL
Clouds: scattered clouds at 400 feet AGL
broken clouds at 1100 feet AGL
overcast cloud deck at 4300 feet AGL
Weather: SHRA BR  (rain showers, mist)

METAR text: ZGHA 021500Z 32004MPS 6000 SHRA FEW005 BKN020 FEW050CB BKN050 23/22 Q1006 RETS BECMG TL1600 -RA BKN011 OVC050
Conditions at: ZGHA (HUANGHUA/CHANGSH, CN) observed 1500 UTC 02 June 2020
Temperature: 23.0°C (73°F)
Dewpoint: 22.0°C (72°F) [RH = 94%]
Pressure (altimeter): 29.70 inches Hg (1006.0 mb)
Winds: from the NW (320 degrees) at 9 MPH (8 knots; 4.1 m/s)
Visibility: 4 miles ( 6 km)
Ceiling: 2000 feet AGL
Clouds: few clouds at 500 feet AGL
broken clouds at 2000 feet AGL
few clouds at 5000 feet AGL
broken clouds at 5000 feet AGL
Weather: SHRA  (rain showers)

METAR text: ZGHA 021400Z 32004MPS 260V340 9999 -RA SCT005 OVC050 23/23 Q1005 NOSIG
Conditions at: ZGHA (HUANGHUA/CHANGSH, CN) observed 1400 UTC 02 June 2020
Temperature: 23.0°C (73°F)
Dewpoint: 23.0°C (73°F) [RH = 100%]
Pressure (altimeter): 29.68 inches Hg (1005.0 mb)
Winds: from the NW (320 degrees) at 9 MPH (8 knots; 4.1 m/s)
Visibility: 6 or more miles (10+ km)
Ceiling: 5000 feet AGL
Clouds: scattered clouds at 500 feet AGL
overcast cloud deck at 5000 feet AGL
Weather: -RA  (light rain)

METAR text: ZGHA 021300Z 36002MPS 9999 FEW005 BKN050 23/23 Q1005 NOSIG
Conditions at: ZGHA (HUANGHUA/CHANGSH, CN) observed 1300 UTC 02 June 2020
Temperature: 23.0°C (73°F)
Dewpoint: 23.0°C (73°F) [RH = 100%]
Pressure (altimeter): 29.68 inches Hg (1005.0 mb)
Winds: from the N (360 degrees) at 5 MPH (4 knots; 2.1 m/s)
Visibility: 6 or more miles (10+ km)
Ceiling: 5000 feet AGL
Clouds: few clouds at 500 feet AGL
broken clouds at 5000 feet AGL
Weather: no significant weather observed at this time

METAR text: ZGHA 021200Z 03003MPS 9999 -RA FEW005 BKN040 23/23 Q1004 RESHRA NOSIG
Conditions at: ZGHA (HUANGHUA/CHANGSH, CN) observed 1200 UTC 02 June 2020
Temperature: 23.0°C (73°F)
Dewpoint: 23.0°C (73°F) [RH = 100%]
Pressure (altimeter): 29.65 inches Hg (1004.0 mb)
Winds: from the NNE (30 degrees) at 7 MPH (6 knots; 3.1 m/s)
Visibility: 6 or more miles (10+ km)
Ceiling: 4000 feet AGL
Clouds: few clouds at 500 feet AGL
broken clouds at 4000 feet AGL
Weather: -RA  (light rain)

METAR text: ZGHA 021100Z 35006MPS 8000 -SHRA SCT005 OVC033 23/23 Q1004 RETSRA NOSIG
Conditions at: ZGHA (HUANGHUA/CHANGSH, CN) observed 1100 UTC 02 June 2020
Temperature: 23.0°C (73°F)
Dewpoint: 23.0°C (73°F) [RH = 100%]
Pressure (altimeter): 29.65 inches Hg (1004.0 mb)
Winds: from the N (350 degrees) at 14 MPH (12 knots; 6.2 m/s)
Visibility: 5 miles ( 8 km)
Ceiling: 3300 feet AGL
Clouds: scattered clouds at 500 feet AGL
overcast cloud deck at 3300 feet AGL
Weather: -SHRA  (light rain showers)

METAR text: ZGHA 021000Z 32007MPS 280V350 5000 TSRA BR SCT010 SCT033CB BKN033 26/23 Q1004 NOSIG
Conditions at: ZGHA (HUANGHUA/CHANGSH, CN) observed 1000 UTC 02 June 2020
Temperature: 26.0°C (79°F)
Dewpoint: 23.0°C (73°F) [RH = 84%]
Pressure (altimeter): 29.65 inches Hg (1004.0 mb)
Winds: from the NW (320 degrees) at 16 MPH (14 knots; 7.2 m/s)
Visibility: 3 miles ( 5 km)
Ceiling: 3300 feet AGL
Clouds: scattered clouds at 1000 feet AGL
scattered clouds at 3300 feet AGL
broken clouds at 3300 feet AGL
Weather: TSRA BR  (rain associated with thunderstorm(s), mist)

METAR text: ZGHA 020900Z 24004MPS 9999 SCT040 31/25 Q1003 NOSIG
Conditions at: ZGHA (HUANGHUA/CHANGSH, CN) observed 0900 UTC 02 June 2020
Temperature: 31.0°C (88°F)
Dewpoint: 25.0°C (77°F) [RH = 71%]
Pressure (altimeter): 29.62 inches Hg (1003.0 mb)
Winds: from the WSW (240 degrees) at 9 MPH (8 knots; 4.1 m/s)
Visibility: 6 or more miles (10+ km)
Ceiling: at least 12,000 feet AGL
Clouds: scattered clouds at 4000 feet AGL
Weather: no significant weather observed at this time

METAR text: ZGHA 020800Z 23003MPS 170V260 9999 BKN040 31/25 Q1003 NOSIG
Conditions at: ZGHA (HUANGHUA/CHANGSH, CN) observed 0800 UTC 02 June 2020
Temperature: 31.0°C (88°F)
Dewpoint: 25.0°C (77°F) [RH = 71%]
Pressure (altimeter): 29.62 inches Hg (1003.0 mb)
Winds: from the SW (230 degrees) at 7 MPH (6 knots; 3.1 m/s)
Visibility: 6 or more miles (10+ km)
Ceiling: 4000 feet AGL
Clouds: broken clouds at 4000 feet AGL
Weather: no significant weather observed at this time

METAR text: ZGHA 020700Z 22005MPS 160V250 9999 SCT030 31/25 Q1003 NOSIG
Conditions at: ZGHA (HUANGHUA/CHANGSH, CN) observed 0700 UTC 02 June 2020
Temperature: 31.0°C (88°F)
Dewpoint: 25.0°C (77°F) [RH = 71%]
Pressure (altimeter): 29.62 inches Hg (1003.0 mb)
Winds: from the SW (220 degrees) at 12 MPH (10 knots; 5.1 m/s)
Visibility: 6 or more miles (10+ km)
Ceiling: at least 12,000 feet AGL
Clouds: scattered clouds at 3000 feet AGL
Weather: no significant weather observed at this time

METAR text: ZGHA 020600Z 19003MPS CAVOK 30/25 Q1004 NOSIG
Conditions at: ZGHA (HUANGHUA/CHANGSH, CN) observed 0600 UTC 02 June 2020
Temperature: 30.0°C (86°F)
Dewpoint: 25.0°C (77°F) [RH = 75%]
Pressure (altimeter): 29.65 inches Hg (1004.0 mb)
Winds: from the S (190 degrees) at 7 MPH (6 knots; 3.1 m/s)
Visibility: 6 or more miles (10+ km)
Ceiling: ceiling and visibility are OK
Clouds: unknown
Weather: no significant weather observed at this time

Forecast for: ZGHA (HUANGHUA/CHANGSH, CN)
Text: TAF ZGHA 031502Z 0318/0418 18004MPS 5000 BR SCT020 BKN050 TX32/0406Z TN22/0322Z
Forecast period: 1800 UTC 03 June 2020 to 1800 UTC 04 June 2020
Forecast type: FROM: standard forecast or significant change
Winds: from the S (180 degrees) at 9 MPH (8 knots; 4.1 m/s)
Visibility: 3 miles (5 km)
Ceiling: 5000 feet AGL
Clouds: scattered clouds at 2000 feet AGL
broken clouds at 5000 feet AGL
Weather: BR  (mist)
Text: TEMPO 0414/0418 2200 SHRA BKN011 FEW030CB BKN040
Forecast period: 1400 to 1800 UTC 04 June 2020
Forecast type: TEMPORARY: The following changes expected for less than half the time period
Visibility: 1.37 miles (2.20 km)
Ceiling: 1100 feet AGL
Clouds: broken clouds at 1100 feet AGL
few clouds at 3000 feet AGL
broken clouds at 4000 feet AGL
Weather: SHRA  (rain showers)